Time;durP1;ratioP1;P1;durP2;ratioP2;P2;SDS_P1;SDS_P2;PMS_P1;PMS_P2;Temp;Humidity;BMP_temperature;BMP_pressure;BME280_temperature;BME280_humidity;BME280_pressure;Samples;Min_cycle;Max_cycle;Signal;HPM_P1;HPM_P2
2022/08/03 00:00:52;;;;;;;3.45;1.52;;;23.20;66.50;;;;;;5072265;28;20059;-71
2022/08/03 00:03:17;;;;;;;2.83;1.20;;;23.20;66.50;;;;;;5073339;28;20431;-71
2022/08/03 00:05:43;;;;;;;4.25;1.50;;;23.20;66.60;;;;;;5073324;28;20059;-72
2022/08/03 00:08:08;;;;;;;2.97;1.20;;;23.20;66.60;;;;;;5072375;28;20044;-72
2022/08/03 00:10:34;;;;;;;2.90;1.30;;;23.20;66.50;;;;;;5074889;28;20070;-72
2022/08/03 00:12:59;;;;;;;2.42;1.13;;;23.20;66.50;;;;;;5072790;28;20037;-72
2022/08/03 00:15:25;;;;;;;4.85;1.38;;;23.20;66.50;;;;;;5073632;28;20072;-72
2022/08/03 00:17:50;;;;;;;6.65;1.80;;;23.20;66.60;;;;;;5073205;28;20037;-72
2022/08/03 00:20:16;;;;;;;2.40;1.33;;;23.10;66.50;;;;;;5073704;28;20041;-71
2022/08/03 00:22:41;;;;;;;3.95;1.40;;;23.20;66.60;;;;;;5074360;28;20043;-72
2022/08/03 00:25:07;;;;;;;2.33;1.20;;;23.20;66.60;;;;;;5074146;28;20049;-72
2022/08/03 00:27:33;;;;;;;3.13;1.65;;;23.20;66.60;;;;;;5073409;28;20048;-72
2022/08/03 00:29:58;;;;;;;3.95;1.30;;;23.20;66.60;;;;;;5072362;28;20066;-72
2022/08/03 00:32:24;;;;;;;4.07;1.38;;;23.10;66.60;;;;;;5074416;28;20040;-72
2022/08/03 00:34:49;;;;;;;3.50;1.50;;;23.20;66.70;;;;;;5073098;28;20060;-72
2022/08/03 00:37:15;;;;;;;2.33;1.20;;;23.20;66.70;;;;;;5072814;28;20048;-71
2022/08/03 00:39:42;;;;;;;2.28;1.20;;;23.20;66.90;;;;;;5072771;28;20044;-72
2022/08/03 00:42:07;;;;;;;3.20;1.45;;;23.10;66.60;;;;;;5071818;28;20392;-72
2022/08/03 00:44:39;;;;;;;2.95;1.40;;;23.20;66.70;;;;;;5074020;28;20507;-72
2022/08/03 00:47:04;;;;;;;4.60;1.33;;;23.20;66.70;;;;;;5073798;28;20125;-72
2022/08/03 00:49:30;;;;;;;2.58;1.27;;;23.10;66.60;;;;;;5073253;28;20079;-72
2022/08/03 00:51:55;;;;;;;3.10;1.58;;;23.10;66.70;;;;;;5055584;28;20067;-72
2022/08/03 00:54:21;;;;;;;2.97;1.10;;;23.10;66.70;;;;;;5072798;28;20123;-72
2022/08/03 00:56:47;;;;;;;2.80;1.60;;;23.10;66.70;;;;;;5071375;28;20064;-72
2022/08/03 00:59:13;;;;;;;2.72;1.27;;;23.10;67.30;;;;;;5073566;28;20141;-72
2022/08/03 01:01:38;;;;;;;3.15;1.40;;;23.10;66.70;;;;;;5072312;28;20079;-71
2022/08/03 01:04:04;;;;;;;2.78;1.30;;;23.10;66.70;;;;;;5071273;28;20064;-72
2022/08/03 01:06:47;;;;;;;4.10;1.40;;;23.10;66.70;;;;;;5073523;28;20079;-72
2022/08/03 01:09:26;;;;;;;2.85;1.30;;;23.10;66.70;;;;;;5072541;28;20040;-72
2022/08/03 01:12:14;;;;;;;2.85;1.40;;;23.10;66.70;;;;;;5071712;28;20048;-72
2022/08/03 01:14:45;;;;;;;;;;;23.10;66.70;;;;;;5072596;28;20423;-72
2022/08/03 01:17:14;;;;;;;2.35;1.33;;;23.10;66.70;;;;;;5055090;28;19920;-72
2022/08/03 01:19:51;;;;;;;2.63;1.08;;;23.00;66.70;;;;;;5073259;28;20045;-72
2022/08/03 01:22:48;;;;;;;3.53;1.47;;;23.10;66.80;;;;;;5072326;28;20051;-72
2022/08/03 01:25:51;;;;;;;3.47;1.77;;;23.10;66.80;;;;;;5072644;28;20044;-72
2022/08/03 01:28:17;;;;;;;2.83;1.35;;;23.10;66.80;;;;;;5071722;28;20049;-71
2022/08/03 01:30:43;;;;;;;3.90;1.33;;;23.10;66.80;;;;;;5070910;28;20052;-72
2022/08/03 01:33:20;;;;;;;3.00;1.30;;;23.00;66.80;;;;;;5055373;28;20040;-72
2022/08/03 01:35:51;;;;;;;2.47;1.33;;;23.10;66.80;;;;;;5071405;28;20507;-72
2022/08/03 01:38:32;;;;;;;2.47;1.17;;;23.10;66.80;;;;;;5070930;28;20544;-72
2022/08/03 01:40:59;;;;;;;3.75;1.23;;;23.10;66.80;;;;;;5071544;28;20044;-72
2022/08/03 01:43:28;;;;;;;2.78;1.20;;;23.10;66.90;;;;;;5071586;28;20052;-72
2022/08/03 01:45:55;;;;;;;3.30;1.38;;;23.00;66.80;;;;;;5070656;28;20048;-72
2022/08/03 01:48:20;;;;;;;3.33;1.27;;;23.10;66.90;;;;;;5071638;28;20037;-71
2022/08/03 01:50:46;;;;;;;3.95;1.50;;;23.10;66.90;;;;;;5071169;28;20067;-71
2022/08/03 01:53:13;;;;;;;3.78;1.40;;;23.00;66.80;;;;;;5070279;28;20041;-71
2022/08/03 01:55:38;;;;;;;1.67;1.00;;;23.00;66.80;;;;;;5054795;28;20036;-72
2022/08/03 01:58:04;;;;;;;2.63;1.30;;;23.00;66.80;;;;;;5070761;28;20124;-72
2022/08/03 02:00:30;;;;;;;2.65;1.10;;;23.00;66.80;;;;;;5053902;28;20036;-71
2022/08/03 02:02:56;;;;;;;1.92;1.10;;;23.00;66.80;;;;;;5054746;28;20123;-72
2022/08/03 02:05:21;;;;;;;3.22;1.33;;;23.10;66.90;;;;;;5071334;28;20127;-72
2022/08/03 02:07:47;;;;;;;3.65;1.35;;;23.00;66.80;;;;;;5070320;28;20056;-71
2022/08/03 02:10:13;;;;;;;3.03;1.40;;;23.00;66.80;;;;;;5071171;28;20047;-72
2022/08/03 02:12:39;;;;;;;3.50;1.30;;;23.00;66.80;;;;;;5070352;28;20547;-71
2022/08/03 02:15:05;;;;;;;2.63;1.10;;;23.00;66.80;;;;;;5054180;28;20135;-72
2022/08/03 02:17:31;;;;;;;2.70;1.08;;;23.00;66.80;;;;;;5071226;28;20492;-71
2022/08/03 02:19:57;;;;;;;2.80;1.30;;;23.00;66.90;;;;;;5053293;28;20041;-71
2022/08/03 02:22:22;;;;;;;3.63;1.38;;;23.00;66.80;;;;;;5054655;28;20091;-71
2022/08/03 02:24:49;;;;;;;3.92;1.35;;;23.00;66.90;;;;;;5070779;28;20040;-71
2022/08/03 02:27:20;;;;;;;2.83;1.23;;;23.00;66.80;;;;;;5070552;28;20079;-71
2022/08/03 02:29:48;;;;;;;4.30;1.20;;;23.00;66.90;;;;;;5070666;28;20080;-71
2022/08/03 02:32:15;;;;;;;;;;;23.00;66.90;;;;;;5072902;28;20044;-72
2022/08/03 02:34:41;;;;;;;3.33;1.30;;;23.00;66.80;;;;;;5070356;28;19924;-71
2022/08/03 02:37:07;;;;;;;2.50;1.42;;;23.00;66.90;;;;;;5070966;28;20109;-71
2022/08/03 02:39:32;;;;;;;4.30;1.10;;;23.00;66.90;;;;;;5071168;28;20145;-71
2022/08/03 02:42:01;;;;;;;2.95;1.10;;;23.00;66.90;;;;;;5069996;28;20420;-71
2022/08/03 02:44:27;;;;;;;2.60;1.27;;;23.00;66.90;;;;;;5071021;28;20051;-71
2022/08/03 02:46:54;;;;;;;2.25;1.10;;;23.00;66.90;;;;;;5070723;28;20044;-71
2022/08/03 02:49:20;;;;;;;4.17;1.57;;;23.00;66.90;;;;;;5070257;28;20130;-71
2022/08/03 02:51:45;;;;;;;4.05;1.02;;;23.00;66.90;;;;;;5071988;28;20080;-71
2022/08/03 02:54:11;;;;;;;3.25;1.42;;;23.00;66.90;;;;;;5071019;28;20071;-71
2022/08/03 02:56:37;;;;;;;3.05;1.10;;;23.00;66.90;;;;;;5070123;28;20056;-71
2022/08/03 02:59:02;;;;;;;2.17;1.15;;;23.00;66.90;;;;;;5053627;28;20048;-72
2022/08/03 03:01:28;;;;;;;1.65;1.10;;;23.00;66.90;;;;;;5070963;28;20503;-71
2022/08/03 03:03:55;;;;;;;3.13;1.25;;;23.00;66.90;;;;;;5070818;28;20518;-71
2022/08/03 03:06:20;;;;;;;3.40;1.10;;;23.00;66.90;;;;;;5075371;28;20045;-71
2022/08/03 03:08:46;;;;;;;2.08;1.02;;;23.00;66.90;;;;;;5057553;28;20040;-71
2022/08/03 03:11:12;;;;;;;2.42;1.23;;;23.00;66.90;;;;;;5073742;28;20078;-72
2022/08/03 03:13:38;;;;;;;2.60;1.00;;;23.00;66.90;;;;;;5057758;28;20094;-71
2022/08/03 03:16:04;;;;;;;3.10;1.23;;;23.00;66.90;;;;;;5073358;28;20044;-72
2022/08/03 03:18:30;;;;;;;2.20;1.08;;;23.00;66.90;;;;;;5074631;28;20076;-71
2022/08/03 03:20:56;;;;;;;2.58;1.10;;;23.00;66.90;;;;;;5057267;28;20053;-71
2022/08/03 03:23:22;;;;;;;1.98;1.02;;;23.00;66.90;;;;;;5056825;28;20480;-71
2022/08/03 03:25:47;;;;;;;2.15;1.00;;;23.00;66.90;;;;;;5073925;28;20036;-71
2022/08/03 03:28:13;;;;;;;1.90;1.08;;;23.00;66.90;;;;;;5057431;28;20044;-71
2022/08/03 03:30:38;;;;;;;2.45;1.05;;;23.00;66.90;;;;;;5073331;28;20048;-71
2022/08/03 03:33:05;;;;;;;1.75;0.90;;;23.00;66.90;;;;;;5057233;28;20055;-71
2022/08/03 03:35:30;;;;;;;2.40;1.15;;;22.90;66.80;;;;;;5074305;28;20123;-71
2022/08/03 03:37:56;;;;;;;1.80;1.20;;;22.90;66.80;;;;;;5072868;28;20049;-71
2022/08/03 03:40:22;;;;;;;1.80;1.20;;;22.90;66.80;;;;;;5075381;28;20051;-71
2022/08/03 03:42:48;;;;;;;2.92;1.17;;;23.00;66.90;;;;;;5056737;28;20072;-71
2022/08/03 03:45:13;;;;;;;1.50;0.85;;;23.00;66.90;;;;;;5073419;28;20048;-71
2022/08/03 03:47:39;;;;;;;2.55;0.82;;;22.90;66.80;;;;;;5073685;28;20094;-72
2022/08/03 03:50:05;;;;;;;2.78;1.00;;;22.90;66.80;;;;;;5056806;28;20051;-72
2022/08/03 03:52:31;;;;;;;2.05;1.20;;;22.90;66.80;;;;;;5074475;28;20044;-72
2022/08/03 03:54:57;;;;;;;2.20;1.20;;;22.90;66.80;;;;;;5073449;28;20067;-72
2022/08/03 03:57:22;;;;;;;1.88;1.00;;;22.90;66.90;;;;;;5073760;28;20490;-71
2022/08/03 03:59:48;;;;;;;1.98;1.00;;;22.90;66.90;;;;;;5073751;28;20040;-71
2022/08/03 04:02:13;;;;;;;2.45;1.15;;;22.90;66.90;;;;;;5055320;28;20053;-71
2022/08/03 04:13:12;;;;;;;2.17;1.10;;;22.90;66.80;;;;;;5052921;28;20045;-71
2022/08/03 04:15:38;;;;;;;3.58;1.25;;;22.90;66.90;;;;;;5053457;28;20045;-71
2022/08/03 04:18:04;;;;;;;2.50;1.00;;;22.90;66.90;;;;;;5052895;28;20052;-72
2022/08/03 04:20:30;;;;;;;2.88;1.00;;;22.90;66.90;;;;;;5052867;28;20041;-72
2022/08/03 04:22:56;;;;;;;2.33;1.10;;;22.90;66.90;;;;;;5053156;28;20041;-72
2022/08/03 04:25:22;;;;;;;2.10;1.10;;;22.90;66.90;;;;;;5069856;28;20094;-71
2022/08/03 04:27:48;;;;;;;2.90;1.08;;;22.90;66.90;;;;;;5068706;28;20044;-71
2022/08/03 04:30:14;;;;;;;2.95;1.10;;;22.90;66.90;;;;;;5069612;28;20052;-72
2022/08/03 04:32:40;;;;;;;1.80;1.00;;;22.90;66.90;;;;;;5070000;28;20045;-72
2022/08/03 04:35:06;;;;;;;2.50;1.10;;;22.90;66.90;;;;;;5051951;28;20397;-72
2022/08/03 04:37:37;;;;;;;3.05;1.10;;;22.90;66.90;;;;;;5053238;28;20485;-72
2022/08/03 04:40:04;;;;;;;2.80;1.33;;;22.90;66.90;;;;;;5052728;28;20049;-71
2022/08/03 04:42:30;;;;;;;3.55;1.00;;;22.90;66.90;;;;;;5068656;28;20124;-72
2022/08/03 04:44:55;;;;;;;1.25;0.80;;;22.90;66.90;;;;;;5052522;28;20120;-72
2022/08/03 04:47:21;;;;;;;2.90;1.00;;;22.90;66.90;;;;;;5052786;28;20153;-72
2022/08/03 04:49:47;;;;;;;2.67;1.23;;;22.90;66.90;;;;;;5035788;28;20037;-72
2022/08/03 04:52:12;;;;;;;1.85;0.98;;;22.90;66.90;;;;;;5036335;28;20044;-72
2022/08/03 04:54:41;;;;;;;2.42;1.00;;;22.90;66.90;;;;;;5051867;28;20148;-72
2022/08/03 04:57:07;;;;;;;3.08;1.25;;;22.90;66.90;;;;;;5052104;28;20071;-72
2022/08/03 04:59:33;;;;;;;3.67;1.13;;;22.90;66.90;;;;;;5069452;28;20076;-72
2022/08/03 05:01:58;;;;;;;2.72;1.00;;;22.90;66.90;;;;;;5052912;28;20502;-71
2022/08/03 05:04:24;;;;;;;3.17;0.82;;;22.90;66.90;;;;;;5053905;28;20480;-72
2022/08/03 05:06:49;;;;;;;3.83;1.25;;;22.90;66.90;;;;;;5053240;28;20477;-72
2022/08/03 05:09:15;;;;;;;2.28;1.20;;;22.90;66.90;;;;;;5051771;28;20128;-72
2022/08/03 05:11:40;;;;;;;2.15;0.90;;;22.90;66.90;;;;;;5053597;28;20051;-72
2022/08/03 05:14:06;;;;;;;2.30;1.13;;;23.00;67.00;;;;;;5053371;28;20075;-73
2022/08/03 05:16:31;;;;;;;2.33;1.10;;;23.00;67.00;;;;;;5051346;28;20480;-73
2022/08/03 05:18:57;;;;;;;1.70;1.00;;;23.00;67.00;;;;;;5053378;28;20435;-72
2022/08/03 05:21:22;;;;;;;2.20;1.10;;;23.00;67.00;;;;;;5053667;28;20492;-73
2022/08/03 05:23:48;;;;;;;1.20;0.85;;;23.00;67.10;;;;;;5071622;28;20040;-66
2022/08/03 05:26:14;;;;;;;2.60;0.93;;;23.00;67.10;;;;;;5073214;28;20479;-63
2022/08/03 05:28:39;;;;;;;1.90;1.20;;;23.00;67.10;;;;;;5072122;28;20403;-64
2022/08/03 05:31:05;;;;;;;8.50;2.20;;;23.00;67.10;;;;;;5070970;28;20040;-66
2022/08/03 05:33:30;;;;;;;7.28;2.45;;;22.90;67.40;;;;;;5072119;28;20105;-66
2022/08/03 05:35:56;;;;;;;7.05;2.50;;;22.90;67.70;;;;;;5071321;28;20048;-66
2022/08/03 05:38:21;;;;;;;7.72;2.38;;;22.90;68.00;;;;;;5071641;28;20036;-67
2022/08/03 05:40:47;;;;;;;9.52;2.75;;;22.90;68.00;;;;;;5072516;28;20377;-67
2022/08/03 05:43:12;;;;;;;8.73;1.90;;;22.90;68.20;;;;;;5071721;28;20041;-67
2022/08/03 05:45:38;;;;;;;7.57;2.30;;;22.90;68.50;;;;;;5071997;28;20399;-67
2022/08/03 05:48:04;;;;;;;10.43;2.35;;;22.90;68.60;;;;;;5072194;28;20036;-67
2022/08/03 05:50:30;;;;;;;9.95;2.58;;;22.90;68.70;;;;;;5071076;28;20044;-67
2022/08/03 05:52:56;;;;;;;10.00;2.42;;;22.80;69.40;;;;;;5071450;28;20047;-67
2022/08/03 05:55:22;;;;;;;9.40;2.25;;;22.90;68.90;;;;;;5071493;28;20049;-67
2022/08/03 05:57:47;;;;;;;6.15;1.77;;;22.90;68.90;;;;;;5071525;28;20036;-67
2022/08/03 06:00:13;;;;;;;9.77;2.55;;;22.90;69.10;;;;;;5072773;28;20435;-65
2022/08/03 06:02:39;;;;;;;9.85;2.60;;;22.90;69.30;;;;;;5072680;28;20043;-66
2022/08/03 06:05:05;;;;;;;12.20;2.50;;;22.80;69.60;;;;;;5071825;28;20044;-65
2022/08/03 06:07:30;;;;;;;8.75;2.45;;;22.80;69.80;;;;;;5072371;28;20377;-65
2022/08/03 06:09:56;;;;;;;12.98;2.88;;;22.80;70.10;;;;;;5072517;28;20033;-67
2022/08/03 06:12:22;;;;;;;10.05;2.55;;;22.80;70.30;;;;;;5071852;28;20384;-65
2022/08/03 06:14:47;;;;;;;9.15;3.22;;;22.70;70.50;;;;;;5072519;28;20044;-65
2022/08/03 06:17:13;;;;;;;7.15;2.25;;;22.70;70.70;;;;;;5071292;28;20072;-65
2022/08/03 06:19:38;;;;;;;8.73;2.97;;;22.70;70.70;;;;;;5071880;28;20076;-67
2022/08/03 06:22:04;;;;;;;10.32;2.80;;;22.70;70.70;;;;;;5070806;28;20044;-66
2022/08/03 06:24:29;;;;;;;8.15;2.83;;;22.70;70.90;;;;;;5072357;28;20055;-66
2022/08/03 06:26:55;;;;;;;8.82;2.33;;;22.70;70.80;;;;;;5051209;28;20141;-65
2022/08/03 06:29:20;;;;;;;11.65;2.60;;;22.70;70.60;;;;;;5051469;28;20128;-65
2022/08/03 06:31:46;;;;;;;11.15;2.80;;;22.80;70.80;;;;;;5051874;28;20400;-65
2022/08/03 06:34:11;;;;;;;9.00;2.50;;;22.80;70.90;;;;;;5049373;28;20037;-68
2022/08/03 06:36:37;;;;;;;6.32;2.53;;;22.80;70.80;;;;;;5049750;28;20056;-67
2022/08/03 06:39:03;;;;;;;11.85;2.42;;;22.80;70.80;;;;;;5052914;28;20094;-68
2022/08/03 06:41:28;;;;;;;6.13;2.00;;;22.80;70.60;;;;;;5055251;28;20405;-67
2022/08/03 06:43:54;;;;;;;9.65;2.35;;;22.90;70.80;;;;;;5055608;28;20069;-67
2022/08/03 06:46:19;;;;;;;10.38;2.45;;;22.80;70.50;;;;;;5054542;28;20048;-67
2022/08/03 06:48:45;;;;;;;12.73;2.20;;;22.90;70.50;;;;;;5061214;28;20077;-67
2022/08/03 06:51:11;;;;;;;10.65;2.40;;;22.80;70.50;;;;;;5075847;28;20492;-68
2022/08/03 06:53:36;;;;;;;10.43;2.95;;;22.90;70.50;;;;;;5073608;28;20082;-68
2022/08/03 06:56:04;;;;;;;10.93;2.20;;;22.80;70.50;;;;;;5075289;28;20048;-68
2022/08/03 06:58:29;;;;;;;7.37;2.00;;;22.90;70.50;;;;;;5075797;28;20391;-68
2022/08/03 07:00:55;;;;;;;7.93;1.92;;;22.90;70.40;;;;;;5075808;28;20510;-68
2022/08/03 07:03:20;;;;;;;9.30;1.95;;;22.90;70.40;;;;;;5074247;28;20415;-68
2022/08/03 07:05:46;;;;;;;10.88;2.20;;;22.90;70.50;;;;;;5075878;28;20391;-68
2022/08/03 07:08:12;;;;;;;8.13;2.17;;;22.90;70.60;;;;;;5073763;28;20538;-69
2022/08/03 07:10:38;;;;;;;8.15;2.00;;;22.90;70.70;;;;;;5076105;28;20051;-69
2022/08/03 07:13:04;;;;;;;8.95;1.90;;;22.90;70.60;;;;;;5074238;28;20052;-68
2022/08/03 07:15:29;;;;;;;10.27;2.15;;;23.00;70.70;;;;;;5075021;28;20098;-67
2022/08/03 07:17:55;;;;;;;10.88;2.40;;;22.90;70.70;;;;;;5075622;28;20476;-75
2022/08/03 07:20:21;;;;;;;11.90;2.33;;;23.00;70.80;;;;;;5074248;28;20071;-75
2022/08/03 07:22:46;;;;;;;10.75;2.20;;;23.00;70.80;;;;;;5074650;28;20040;-75
2022/08/03 07:25:12;;;;;;;8.55;1.70;;;23.00;70.80;;;;;;5075484;28;20041;-76
2022/08/03 07:27:37;;;;;;;8.45;2.00;;;23.00;70.80;;;;;;5074194;28;20056;-75
2022/08/03 07:30:05;;;;;;;9.88;1.67;;;23.00;70.80;;;;;;5056298;28;20045;-76
2022/08/03 07:32:31;;;;;;;6.57;1.98;;;23.00;70.80;;;;;;5073987;28;20052;-76
2022/08/03 07:34:56;;;;;;;8.20;2.33;;;23.00;70.80;;;;;;5074884;28;20040;-75
2022/08/03 07:37:22;;;;;;;12.63;1.90;;;23.00;70.80;;;;;;5074728;28;20385;-75
2022/08/03 07:39:47;;;;;;;7.40;2.05;;;23.00;70.70;;;;;;5073902;28;20047;-75
2022/08/03 07:42:13;;;;;;;8.75;1.98;;;23.00;70.70;;;;;;5074011;28;20563;-75
2022/08/03 07:44:39;;;;;;;10.40;2.08;;;23.10;70.70;;;;;;5073374;28;20040;-76
2022/08/03 07:47:04;;;;;;;9.82;2.17;;;23.00;70.70;;;;;;5073931;28;20045;-76
2022/08/03 07:49:30;;;;;;;7.57;2.05;;;23.10;71.30;;;;;;5075323;28;20036;-76
2022/08/03 07:54:39;;;;;;;7.60;1.73;;;23.10;70.70;;;;;;5075257;28;20123;-76
2022/08/03 07:57:05;;;;;;;7.15;1.90;;;23.10;70.60;;;;;;5073393;28;20131;-76
2022/08/03 07:59:31;;;;;;;7.75;2.08;;;23.10;70.60;;;;;;5074479;28;20190;-76
2022/08/03 08:01:56;;;;;;;7.45;1.52;;;23.10;70.50;;;;;;5074721;28;20083;-76
2022/08/03 08:04:22;;;;;;;8.15;1.90;;;23.10;70.50;;;;;;5072739;28;20047;-76
2022/08/03 08:06:47;;;;;;;6.70;1.60;;;23.10;70.50;;;;;;5074765;28;20052;-76
2022/08/03 08:09:13;;;;;;;8.60;1.98;;;23.10;70.50;;;;;;5074956;28;20093;-76
2022/08/03 08:11:39;;;;;;;9.15;2.03;;;23.10;70.40;;;;;;5074216;28;20078;-76
2022/08/03 08:14:06;;;;;;;7.40;1.95;;;23.20;70.50;;;;;;5074755;28;20182;-76
2022/08/03 08:16:31;;;;;;;7.53;1.67;;;23.20;70.50;;;;;;5074749;28;20087;-76
2022/08/03 08:18:57;;;;;;;6.32;1.52;;;23.20;70.50;;;;;;5072610;28;20068;-76
2022/08/03 08:21:23;;;;;;;5.20;1.60;;;23.20;70.50;;;;;;5074404;28;20048;-76
2022/08/03 08:23:48;;;;;;;6.93;1.52;;;23.20;70.50;;;;;;5074023;28;20044;-76
2022/08/03 08:26:14;;;;;;;7.82;1.80;;;23.20;70.40;;;;;;5072445;28;20048;-76
2022/08/03 08:28:39;;;;;;;6.70;1.63;;;23.20;70.40;;;;;;5072875;28;20496;-76
2022/08/03 08:31:05;;;;;;;6.10;2.00;;;23.20;70.40;;;;;;5072746;28;20052;-76
2022/08/03 08:33:31;;;;;;;8.30;1.48;;;23.20;70.40;;;;;;5073805;28;20037;-76
2022/08/03 08:35:56;;;;;;;8.13;2.20;;;23.20;70.30;;;;;;5074335;28;20048;-76
2022/08/03 08:38:22;;;;;;;7.65;2.17;;;23.30;70.40;;;;;;5072954;28;20037;-76
2022/08/03 08:40:48;;;;;;;7.38;2.47;;;23.30;70.90;;;;;;5071708;28;20135;-77
2022/08/03 08:43:14;;;;;;;7.43;1.67;;;23.30;70.30;;;;;;5072856;28;20048;-77
2022/08/03 08:45:40;;;;;;;6.32;1.90;;;23.30;70.30;;;;;;5073064;28;20043;-76
2022/08/03 08:48:05;;;;;;;5.70;1.50;;;23.30;70.20;;;;;;5073196;28;20534;-76
2022/08/03 08:50:31;;;;;;;5.68;1.75;;;23.30;70.20;;;;;;5055944;28;20055;-76
2022/08/03 08:52:59;;;;;;;7.15;1.48;;;23.30;70.10;;;;;;5073532;28;20070;-75
2022/08/03 08:55:24;;;;;;;6.60;1.60;;;23.30;70.20;;;;;;5071882;28;20040;-72
2022/08/03 08:57:52;;;;;;;7.40;1.88;;;23.40;70.10;;;;;;5073641;28;20044;-75
2022/08/03 09:00:18;;;;;;;;;;;23.30;70.00;;;;;;5056540;28;20044;-74
2022/08/03 09:02:44;;;;;;;5.78;1.80;;;23.40;69.90;;;;;;5071911;28;19920;-74
2022/08/03 09:05:11;;;;;;;7.47;1.60;;;23.30;69.90;;;;;;5072656;28;20094;-77
2022/08/03 09:07:37;;;;;;;11.23;1.98;;;23.30;69.90;;;;;;5071931;28;20051;-72
2022/08/03 09:10:04;;;;;;;6.38;1.80;;;23.40;69.90;;;;;;5073570;28;20037;-72
2022/08/03 09:12:29;;;;;;;5.40;1.50;;;23.40;69.90;;;;;;5072326;28;20093;-73
2022/08/03 09:14:55;;;;;;;6.15;1.70;;;23.40;69.90;;;;;;5038061;28;20044;-72
2022/08/03 09:17:20;;;;;;;6.35;1.65;;;23.40;69.90;;;;;;5072451;28;20391;-79
2022/08/03 09:20:13;;;;;;;6.35;1.80;;;23.40;69.90;;;;;;5073382;28;20048;-72
2022/08/03 09:22:53;;;;;;;7.72;1.98;;;23.40;69.70;;;;;;5070534;28;20044;-72
2022/08/03 09:25:19;;;;;;;7.65;1.98;;;23.40;69.70;;;;;;5071396;28;20048;-72
2022/08/03 09:27:44;;;;;;;7.13;1.42;;;23.40;69.70;;;;;;5072323;28;20045;-72
2022/08/03 09:30:14;;;;;;;7.85;1.40;;;23.40;69.70;;;;;;5070951;28;20065;-72
2022/08/03 09:32:40;;;;;;;6.35;1.50;;;23.40;69.60;;;;;;5072983;28;20384;-73
2022/08/03 09:35:06;;;;;;;9.30;1.83;;;23.50;69.80;;;;;;5071433;28;20052;-73
2022/08/03 09:37:31;;;;;;;6.88;1.83;;;23.50;69.80;;;;;;5054850;28;20044;-73
2022/08/03 09:39:57;;;;;;;11.15;1.83;;;23.50;69.80;;;;;;5055033;28;20499;-72
2022/08/03 09:42:23;;;;;;;7.63;2.05;;;23.50;69.80;;;;;;5071511;28;20504;-74
2022/08/03 09:44:49;;;;;;;6.65;1.88;;;23.50;69.80;;;;;;5070711;28;20064;-73
2022/08/03 09:47:35;;;;;;;6.82;1.80;;;23.50;70.40;;;;;;5072055;28;20190;-74
2022/08/03 09:50:05;;;;;;;8.02;1.73;;;23.50;69.80;;;;;;5070204;28;20132;-74
2022/08/03 09:52:32;;;;;;;9.02;1.60;;;23.60;69.90;;;;;;5071414;28;20048;-74
2022/08/03 09:55:00;;;;;;;5.97;1.50;;;23.60;69.80;;;;;;5071383;28;20048;-74
2022/08/03 09:57:26;;;;;;;11.07;2.40;;;23.60;69.80;;;;;;5070588;28;20044;-72
2022/08/03 09:59:52;;;;;;;8.23;1.92;;;23.60;69.70;;;;;;5072385;28;20059;-74
2022/08/03 10:02:25;;;;;;;6.30;1.60;;;23.60;69.70;;;;;;5072908;28;20036;-73
2022/08/03 10:04:51;;;;;;;10.02;2.08;;;23.60;69.70;;;;;;5070840;28;20058;-72
2022/08/03 10:07:18;;;;;;;6.80;1.65;;;23.60;69.60;;;;;;5071231;28;20072;-68
2022/08/03 10:09:53;;;;;;;10.40;2.17;;;23.60;69.70;;;;;;5072062;28;20106;-72
2022/08/03 10:12:19;;;;;;;9.27;1.98;;;23.60;69.90;;;;;;5068777;28;20036;-74
2022/08/03 10:14:45;;;;;;;6.07;1.85;;;23.60;70.00;;;;;;5053829;28;20128;-73
2022/08/03 10:17:11;;;;;;;4.30;1.33;;;23.70;70.00;;;;;;5071601;28;20037;-73
2022/08/03 10:19:36;;;;;;;5.38;1.42;;;23.70;70.00;;;;;;5071969;28;20446;-72
2022/08/03 10:22:22;;;;;;;5.38;1.73;;;23.70;69.80;;;;;;5071834;28;20200;-72
2022/08/03 10:25:19;;;;;;;10.55;1.90;;;23.70;69.60;;;;;;5070842;28;20484;-71
2022/08/03 10:27:46;;;;;;;4.80;1.48;;;23.70;69.60;;;;;;5057915;28;20088;-72
2022/08/03 10:30:12;;;;;;;6.85;1.60;;;23.70;69.60;;;;;;5070912;28;20052;-72
2022/08/03 10:32:41;;;;;;;6.90;1.65;;;23.70;69.50;;;;;;5070517;28;20098;-71
2022/08/03 10:35:12;;;;;;;5.35;1.35;;;23.70;69.40;;;;;;5070886;28;20045;-71
2022/08/03 10:37:42;;;;;;;6.28;1.70;;;23.70;69.40;;;;;;5071080;28;20071;-72
2022/08/03 10:40:11;;;;;;;8.63;1.60;;;23.70;69.40;;;;;;5053580;28;20503;-71
2022/08/03 10:42:37;;;;;;;11.85;2.15;;;23.70;69.50;;;;;;5072596;28;20090;-71
2022/08/03 10:45:08;;;;;;;10.02;1.60;;;23.70;69.60;;;;;;5071075;28;20119;-72
2022/08/03 10:47:34;;;;;;;6.85;1.58;;;23.70;69.50;;;;;;5053577;28;20059;-71
2022/08/03 10:50:00;;;;;;;7.68;2.05;;;23.70;69.50;;;;;;5053577;28;20045;-73
2022/08/03 10:52:25;;;;;;;7.38;1.60;;;23.70;69.40;;;;;;5070648;28;20036;-76
2022/08/03 10:57:48;;;;;;;7.65;2.30;;;23.80;69.40;;;;;;5056063;28;20049;-75
2022/08/03 11:00:18;;;;;;;6.28;1.50;;;23.80;69.40;;;;;;5075464;28;20048;-74
2022/08/03 11:03:02;;;;;;;8.45;1.88;;;23.80;69.30;;;;;;5071462;28;20033;-74
2022/08/03 11:05:28;;;;;;;8.57;1.58;;;23.80;69.30;;;;;;5071185;28;20036;-72
2022/08/03 11:08:20;;;;;;;7.30;2.00;;;23.80;69.30;;;;;;5071188;28;20048;-72
2022/08/03 11:10:46;;;;;;;4.47;1.30;;;23.80;69.20;;;;;;5070437;28;20131;-72
2022/08/03 11:13:15;;;;;;;6.35;1.98;;;23.80;69.20;;;;;;5087411;28;20365;-77
2022/08/03 11:15:42;;;;;;;8.95;2.15;;;23.90;69.10;;;;;;5053360;28;20052;-72
2022/08/03 11:18:09;;;;;;;8.48;1.65;;;23.90;69.00;;;;;;5071002;28;20045;-74
2022/08/03 11:20:54;;;;;;;4.47;1.55;;;23.90;69.00;;;;;;5070827;28;20076;-73
2022/08/03 11:23:44;;;;;;;8.75;1.73;;;23.90;68.80;;;;;;5069745;28;20487;-74
2022/08/03 11:26:20;;;;;;;7.53;2.20;;;23.90;68.80;;;;;;5072744;28;20369;-71
2022/08/03 11:28:45;;;;;;;10.13;2.08;;;23.90;68.70;;;;;;5074247;28;20056;-73
2022/08/03 11:31:37;;;;;;;6.72;1.75;;;23.90;68.70;;;;;;5074515;28;20396;-74
2022/08/03 11:34:07;;;;;;;8.32;1.80;;;23.90;68.80;;;;;;5073765;28;20519;-74
2022/08/03 11:37:10;;;;;;;10.18;2.60;;;23.90;68.80;;;;;;5073153;28;20484;-75
2022/08/03 11:39:39;;;;;;;12.38;2.40;;;24.00;68.80;;;;;;5075303;28;20102;-73
2022/08/03 11:42:23;;;;;;;7.40;1.48;;;24.00;68.80;;;;;;5073483;28;20071;-74
2022/08/03 11:44:49;;;;;;;7.07;1.42;;;24.00;68.90;;;;;;5072523;28;20044;-73
2022/08/03 11:47:16;;;;;;;9.07;1.75;;;24.00;68.80;;;;;;5073569;28;20116;-73
2022/08/03 11:49:44;;;;;;;9.07;1.60;;;24.00;68.70;;;;;;5072562;28;20875;-74
2022/08/03 11:52:09;;;;;;;7.53;1.20;;;24.00;68.60;;;;;;5073657;28;20044;-73
2022/08/03 11:54:35;;;;;;;9.45;1.90;;;24.00;68.50;;;;;;5056893;28;20041;-73
2022/08/03 11:57:00;;;;;;;5.72;1.45;;;24.00;68.50;;;;;;5073566;28;20037;-73
2022/08/03 11:59:33;;;;;;;8.15;2.03;;;24.00;68.40;;;;;;5056044;28;20055;-74
2022/08/03 12:02:08;;;;;;;7.20;1.58;;;24.00;68.40;;;;;;5072410;28;20045;-73
2022/08/03 12:04:57;;;;;;;6.70;1.50;;;24.10;68.40;;;;;;5073926;28;20048;-77
2022/08/03 12:07:22;;;;;;;9.65;1.65;;;24.10;68.50;;;;;;5072534;28;20036;-75
2022/08/03 12:10:10;;;;;;;7.68;1.65;;;24.10;68.40;;;;;;5074320;28;20460;-75
2022/08/03 12:12:36;;;;;;;7.22;1.77;;;24.10;68.30;;;;;;5073380;28;20041;-76
2022/08/03 12:15:02;;;;;;;7.68;1.58;;;24.10;68.40;;;;;;5073042;28;20043;-72
2022/08/03 12:17:39;;;;;;;7.30;1.75;;;24.10;68.40;;;;;;5073041;28;20130;-73
2022/08/03 12:20:07;;;;;;;8.02;1.75;;;24.10;68.40;;;;;;5072071;28;20084;-72
2022/08/03 12:22:34;;;;;;;8.00;1.63;;;24.10;68.40;;;;;;5072632;28;20057;-73
2022/08/03 12:24:59;;;;;;;8.65;1.80;;;24.10;68.30;;;;;;5071321;28;20040;-74
2022/08/03 12:27:28;;;;;;;10.27;1.70;;;24.10;68.30;;;;;;5073044;28;20056;-68
2022/08/03 12:29:54;;;;;;;5.65;1.35;;;24.20;68.30;;;;;;5073786;28;20059;-74
2022/08/03 12:32:19;;;;;;;8.70;1.98;;;24.20;68.20;;;;;;5073882;28;20048;-73
2022/08/03 12:34:48;;;;;;;6.28;1.63;;;24.20;68.20;;;;;;5085984;28;20048;-74
2022/08/03 12:37:20;;;;;;;5.05;1.55;;;24.20;68.20;;;;;;5073940;28;20037;-73
2022/08/03 12:39:53;;;;;;;7.00;1.75;;;24.20;68.20;;;;;;5077541;28;20042;-73
2022/08/03 12:42:19;;;;;;;5.15;1.38;;;24.20;68.20;;;;;;5072432;28;20616;-73
2022/08/03 12:44:45;;;;;;;8.50;1.60;;;24.20;68.20;;;;;;5070970;28;20040;-74
2022/08/03 12:47:11;;;;;;;8.63;1.65;;;24.20;68.10;;;;;;5071617;28;20420;-75
2022/08/03 12:49:49;;;;;;;8.70;1.70;;;24.20;68.10;;;;;;5072430;28;20037;-74
2022/08/03 12:52:16;;;;;;;7.95;1.73;;;24.20;68.10;;;;;;5072597;28;20052;-74
2022/08/03 12:54:42;;;;;;;8.23;1.60;;;24.20;68.10;;;;;;5073381;28;20080;-74
2022/08/03 12:57:11;;;;;;;6.85;1.80;;;24.20;68.00;;;;;;5072842;28;20059;-73
2022/08/03 12:59:41;;;;;;;10.98;1.75;;;24.30;68.00;;;;;;5072502;28;20044;-74
2022/08/03 13:02:33;;;;;;;3.90;1.35;;;24.30;67.90;;;;;;5073442;28;20036;-73